createdAt,value
2023-04-09T00:01:46.720Z,100.00
2023-04-09T00:03:51.855Z,100.00
2023-04-09T00:05:57.956Z,100.00
2023-04-09T00:08:02.965Z,100.00
2023-04-09T00:10:12.419Z,100.00
2023-04-09T00:12:17.471Z,100.00
2023-04-09T00:14:23.089Z,100.00
2023-04-09T00:16:28.305Z,100.00
2023-04-09T00:18:33.349Z,100.00
2023-04-09T00:20:38.633Z,100.00
2023-04-09T00:22:43.641Z,100.00
2023-04-09T00:24:49.279Z,100.00
2023-04-09T00:26:57.131Z,100.00
2023-04-09T00:29:02.211Z,100.00
2023-04-09T00:31:07.873Z,100.00
2023-04-09T00:33:12.942Z,100.00
2023-04-09T00:35:19.000Z,100.00
2023-04-09T00:37:24.367Z,100.00
2023-04-09T00:39:29.555Z,100.00
2023-04-09T00:41:34.993Z,100.00
2023-04-09T00:43:42.623Z,100.00
2023-04-09T00:45:48.190Z,100.00
2023-04-09T00:47:54.080Z,100.00
2023-04-09T00:49:59.489Z,100.00
2023-04-09T00:52:05.119Z,100.00
2023-04-09T00:54:10.849Z,100.00
2023-04-09T00:56:16.703Z,100.00
2023-04-09T00:58:21.868Z,100.00
2023-04-09T01:00:29.787Z,100.00
2023-04-09T01:02:35.615Z,100.00
2023-04-09T01:04:43.282Z,100.00
2023-04-09T01:06:55.437Z,100.00
2023-04-09T01:09:09.104Z,100.00
2023-04-09T01:11:26.925Z,100.00
2023-04-09T01:13:42.456Z,100.00
2023-04-09T01:15:55.035Z,100.00
2023-04-09T01:18:10.308Z,100.00
2023-04-09T01:20:21.417Z,100.00
2023-04-09T01:22:39.859Z,100.00
2023-04-09T01:25:00.696Z,100.00
2023-04-09T01:27:14.828Z,100.00
2023-04-09T01:29:42.193Z,100.00
2023-04-09T01:31:48.461Z,100.00
2023-04-09T01:33:55.446Z,100.00
2023-04-09T01:36:01.690Z,100.00
2023-04-09T01:38:07.979Z,100.00
2023-04-09T01:40:14.380Z,100.00
2023-04-09T01:42:20.553Z,100.00
2023-04-09T01:44:27.801Z,100.00
2023-04-09T01:46:36.975Z,100.00
2023-04-09T01:48:42.975Z,100.00
2023-04-09T01:50:48.819Z,100.00
2023-04-09T01:52:54.704Z,100.00
2023-04-09T01:54:59.766Z,100.00
2023-04-09T01:57:04.781Z,100.00
2023-04-09T01:59:09.849Z,100.00
2023-04-09T02:01:23.520Z,100.00
2023-04-09T02:03:38.338Z,100.00
2023-04-09T02:05:55.930Z,100.00
2023-04-09T02:08:07.740Z,100.00
2023-04-09T02:10:17.500Z,100.00
2023-04-09T02:12:24.445Z,100.00
2023-04-09T02:14:31.234Z,100.00
2023-04-09T02:16:37.102Z,100.00
2023-04-09T02:18:45.107Z,100.00
2023-04-09T02:20:50.113Z,100.00
2023-04-09T02:22:55.118Z,100.00
2023-04-09T02:25:00.168Z,100.00
2023-04-09T02:27:06.306Z,100.00
2023-04-09T02:29:11.383Z,100.00
2023-04-09T02:31:16.640Z,100.00
2023-04-09T02:33:22.070Z,100.00
2023-04-09T02:35:29.885Z,100.00
2023-04-09T02:37:35.065Z,100.00
2023-04-09T02:39:40.114Z,100.00
2023-04-09T02:41:45.111Z,100.00
2023-04-09T02:43:50.409Z,100.00
2023-04-09T02:45:55.864Z,100.00
2023-04-09T02:48:00.903Z,100.00
2023-04-09T02:50:11.727Z,100.00
2023-04-09T02:52:27.093Z,100.00
2023-04-09T02:54:32.128Z,100.00
2023-04-09T02:56:37.286Z,100.00
2023-04-09T02:58:42.522Z,100.00
2023-04-09T03:00:47.838Z,100.00
2023-04-09T03:02:55.864Z,100.00
2023-04-09T03:05:01.510Z,100.00
2023-04-09T03:07:06.572Z,100.00
2023-04-09T03:09:14.188Z,100.00
2023-04-09T03:11:19.448Z,100.00
2023-04-09T03:13:24.741Z,100.00
2023-04-09T03:15:30.383Z,100.00
2023-04-09T03:17:35.452Z,100.00
2023-04-09T03:19:40.564Z,100.00
2023-04-09T03:21:46.658Z,100.00
2023-04-09T03:23:51.681Z,100.00
2023-04-09T03:26:07.220Z,100.00
2023-04-09T03:28:19.878Z,100.00
2023-04-09T03:30:29.802Z,100.00
2023-04-09T03:32:36.327Z,100.00
2023-04-09T03:34:42.554Z,100.00
2023-04-09T03:36:48.163Z,100.00
2023-04-09T03:39:01.131Z,100.00
2023-04-09T03:41:16.621Z,100.00
2023-04-09T03:43:21.790Z,100.00
2023-04-09T03:45:30.177Z,100.00
2023-04-09T03:47:49.208Z,100.00
2023-04-09T03:49:56.766Z,100.00
2023-04-09T03:52:05.972Z,100.00
2023-04-09T03:54:15.959Z,100.00
2023-04-09T03:56:24.617Z,100.00
2023-04-09T03:58:29.722Z,100.00
2023-04-09T04:00:35.946Z,100.00
2023-04-09T04:02:59.718Z,100.00
2023-04-09T04:05:28.493Z,100.00
2023-04-09T04:07:37.647Z,100.00
2023-04-09T04:09:48.000Z,100.00
2023-04-09T04:11:59.006Z,100.00
2023-04-09T04:14:16.770Z,100.00
2023-04-09T04:16:26.070Z,100.00
2023-04-09T04:18:33.358Z,100.00
2023-04-09T04:20:38.880Z,100.00
2023-04-09T04:22:48.572Z,100.00
2023-04-09T04:24:54.265Z,100.00
2023-04-09T04:27:03.697Z,100.00
2023-04-09T04:29:12.619Z,100.00
2023-04-09T04:31:27.698Z,100.00
2023-04-09T04:33:36.779Z,100.00
2023-04-09T04:35:45.965Z,100.00
2023-04-09T04:38:07.997Z,100.00
2023-04-09T04:40:16.237Z,100.00
2023-04-09T04:42:23.956Z,100.00
2023-04-09T04:44:29.284Z,100.00
2023-04-09T04:46:43.674Z,100.00
2023-04-09T04:48:49.593Z,100.00
2023-04-09T04:51:02.411Z,100.00
2023-04-09T04:53:18.572Z,100.00
2023-04-09T04:55:28.271Z,100.00
2023-04-09T04:57:36.616Z,100.00
2023-04-09T04:59:43.214Z,100.00
2023-04-09T05:01:50.690Z,100.00
2023-04-09T05:03:56.508Z,100.00
2023-04-09T05:06:12.484Z,100.00
2023-04-09T05:08:21.585Z,100.00
2023-04-09T05:10:30.183Z,100.00
2023-04-09T05:12:39.468Z,100.00
2023-04-09T05:14:46.631Z,100.00
2023-04-09T05:16:52.411Z,100.00
2023-04-09T05:19:02.395Z,100.00
2023-04-09T05:21:08.217Z,100.00
2023-04-09T05:23:14.224Z,100.00
2023-04-09T05:25:24.022Z,100.00
2023-04-09T05:27:29.893Z,100.00
2023-04-09T05:29:41.844Z,100.00
2023-04-09T05:31:48.879Z,100.00
2023-04-09T05:34:06.657Z,100.00
2023-04-09T05:36:19.562Z,100.00
2023-04-09T05:38:24.624Z,100.00
2023-04-09T05:40:35.609Z,100.00
2023-04-09T05:42:44.423Z,100.00
2023-04-09T05:44:59.002Z,100.00
2023-04-09T05:47:04.180Z,100.00
2023-04-09T05:49:17.904Z,100.00
2023-04-09T05:51:25.716Z,100.00
2023-04-09T05:53:31.544Z,100.00
2023-04-09T05:55:37.042Z,100.00
2023-04-09T05:57:42.405Z,100.00
2023-04-09T05:59:48.377Z,100.00
2023-04-09T06:01:56.442Z,100.00
2023-04-09T06:04:02.367Z,100.00
2023-04-09T06:06:09.132Z,100.00
2023-04-09T06:08:14.560Z,100.00
2023-04-09T06:10:20.441Z,100.00
2023-04-09T06:12:26.769Z,100.00
2023-04-09T06:14:33.332Z,100.00
2023-04-09T06:16:38.431Z,100.00
2023-04-09T06:18:46.873Z,100.00
2023-04-09T06:20:52.304Z,100.00
2023-04-09T06:22:57.790Z,100.00
2023-04-09T06:25:03.217Z,100.00
2023-04-09T06:27:08.348Z,100.00
2023-04-09T06:29:13.595Z,100.00
2023-04-09T06:31:19.151Z,100.00
2023-04-09T06:33:24.348Z,100.00
2023-04-09T06:35:32.164Z,100.00
2023-04-09T06:37:37.338Z,100.00
2023-04-09T06:39:50.644Z,100.00
2023-04-09T06:41:59.465Z,100.00
2023-04-09T06:44:17.144Z,100.00
2023-04-09T06:46:22.651Z,100.00
2023-04-09T06:48:27.862Z,100.00
2023-04-09T06:50:35.509Z,100.00
2023-04-09T06:52:40.832Z,100.00
2023-04-09T06:54:46.293Z,100.00
2023-04-09T06:56:52.013Z,100.00
2023-04-09T06:58:57.262Z,100.00
2023-04-09T07:01:02.973Z,100.00
2023-04-09T07:03:09.463Z,100.00
2023-04-09T07:05:14.763Z,100.00
2023-04-09T07:07:24.377Z,100.00
2023-04-09T07:09:31.715Z,100.00
2023-04-09T07:11:37.186Z,100.00
2023-04-09T07:13:42.230Z,100.00
2023-04-09T07:15:47.387Z,100.00
2023-04-09T07:17:52.494Z,100.00
2023-04-09T07:19:57.716Z,100.00
2023-04-09T07:22:02.741Z,100.00
2023-04-09T07:24:10.742Z,100.00
2023-04-09T07:26:15.757Z,100.00
2023-04-09T07:28:21.524Z,100.00
2023-04-09T07:30:27.562Z,100.00
2023-04-09T07:32:32.897Z,100.00
2023-04-09T07:34:37.933Z,100.00
2023-04-09T07:36:43.391Z,100.00
2023-04-09T07:38:48.789Z,100.00
2023-04-09T07:40:56.616Z,100.00
2023-04-09T07:43:01.790Z,100.00
2023-04-09T07:45:07.830Z,100.00
2023-04-09T07:47:13.323Z,100.00
2023-04-09T07:49:18.967Z,100.00
2023-04-09T07:51:24.007Z,100.00
2023-04-09T07:53:29.306Z,100.00
2023-04-09T07:55:34.372Z,100.00
2023-04-09T07:57:43.174Z,100.00
2023-04-09T07:59:48.400Z,100.00
2023-04-09T08:01:53.787Z,100.00
2023-04-09T08:03:59.057Z,100.00
2023-04-09T08:06:04.269Z,100.00
2023-04-09T08:08:09.598Z,100.00
2023-04-09T08:10:16.502Z,100.00
2023-04-09T08:12:21.538Z,100.00
2023-04-09T08:14:29.201Z,100.00
2023-04-09T08:16:34.325Z,100.00
2023-04-09T08:18:39.925Z,100.00
2023-04-09T08:20:45.723Z,100.00
2023-04-09T08:22:50.948Z,100.00
2023-04-09T08:24:56.482Z,100.00
2023-04-09T08:27:01.995Z,100.00
2023-04-09T08:29:07.599Z,100.00
2023-04-09T08:31:15.873Z,100.00
2023-04-09T08:33:21.192Z,100.00
2023-04-09T08:35:26.227Z,100.00
2023-04-09T08:37:31.228Z,100.00
2023-04-09T08:39:36.545Z,100.00
2023-04-09T08:41:46.779Z,100.00
2023-04-09T08:43:58.318Z,100.00
2023-04-09T08:46:04.846Z,100.00
2023-04-09T08:48:13.442Z,100.00
2023-04-09T08:50:18.808Z,100.00
2023-04-09T08:52:35.132Z,100.00
2023-04-09T08:54:40.827Z,100.00
2023-04-09T08:56:46.074Z,100.00
2023-04-09T08:58:53.075Z,100.00
2023-04-09T09:00:58.518Z,100.00
2023-04-09T09:03:08.743Z,100.00
2023-04-09T09:05:16.378Z,100.00
2023-04-09T09:07:21.474Z,100.00
2023-04-09T09:09:26.990Z,100.00
2023-04-09T09:11:33.118Z,100.00
2023-04-09T09:13:38.159Z,100.00
2023-04-09T09:15:43.308Z,100.00
2023-04-09T09:17:58.406Z,100.00
2023-04-09T09:20:25.835Z,100.00
2023-04-09T09:22:30.874Z,100.00
2023-04-09T09:24:36.726Z,100.00
2023-04-09T09:26:42.339Z,100.00
2023-04-09T09:28:48.346Z,100.00
2023-04-09T09:30:53.552Z,100.00
2023-04-09T09:33:09.515Z,100.00
2023-04-09T09:35:14.896Z,100.00
2023-04-09T09:37:32.983Z,100.00
2023-04-09T09:39:47.170Z,100.00
2023-04-09T09:42:09.507Z,100.00
2023-04-09T09:44:32.897Z,100.00
2023-04-09T09:46:41.249Z,100.00
2023-04-09T09:48:50.178Z,100.00
2023-04-09T09:50:55.846Z,100.00
2023-04-09T09:53:07.191Z,100.00
2023-04-09T09:55:16.307Z,100.00
2023-04-09T09:57:24.663Z,100.00
2023-04-09T09:59:37.205Z,100.00
2023-04-09T10:01:44.162Z,100.00
2023-04-09T10:03:52.756Z,100.00
2023-04-09T10:05:59.088Z,100.00
2023-04-09T10:08:07.194Z,100.00
2023-04-09T10:10:12.796Z,100.00
2023-04-09T10:12:18.765Z,100.00
2023-04-09T10:14:24.668Z,100.00
2023-04-09T10:16:31.391Z,100.00
2023-04-09T10:18:36.953Z,100.00
2023-04-09T10:20:49.606Z,100.00
2023-04-09T10:22:56.273Z,100.00
2023-04-09T10:25:04.143Z,100.00
2023-04-09T10:27:19.756Z,100.00
2023-04-09T10:29:31.758Z,100.00
2023-04-09T10:31:56.369Z,100.00
2023-04-09T10:34:08.213Z,100.00
2023-04-09T10:36:15.862Z,100.00
2023-04-09T10:38:35.651Z,100.00
2023-04-09T10:40:52.279Z,100.00
2023-04-09T10:42:58.813Z,100.00
2023-04-09T10:45:12.041Z,100.00
2023-04-09T10:47:34.235Z,100.00
2023-04-09T10:49:41.380Z,100.00
2023-04-09T10:51:54.369Z,100.00
2023-04-09T10:53:59.402Z,100.00
2023-04-09T10:56:19.370Z,100.00
2023-04-09T10:58:24.762Z,100.00
2023-04-09T11:00:30.500Z,100.00
2023-04-09T11:03:08.387Z,100.00
2023-04-09T11:05:25.417Z,100.00
2023-04-09T11:07:33.198Z,100.00
2023-04-09T11:09:38.712Z,100.00
2023-04-09T11:11:46.549Z,100.00
2023-04-09T11:13:52.112Z,100.00
2023-04-09T11:15:58.948Z,100.00
2023-04-09T11:18:07.192Z,100.00
2023-04-09T11:20:14.036Z,100.00
2023-04-09T11:22:19.307Z,99.96
2023-04-09T11:24:25.931Z,100.00
2023-04-09T11:26:39.472Z,100.00
2023-04-09T11:28:47.738Z,97.04
2023-04-09T11:30:54.898Z,97.83
2023-04-09T11:33:00.372Z,98.01
2023-04-09T11:35:05.598Z,100.00
2023-04-09T11:37:17.329Z,100.00
2023-04-09T11:39:22.625Z,100.00
2023-04-09T11:41:37.386Z,100.00
2023-04-09T11:43:42.630Z,97.49
2023-04-09T11:45:50.850Z,92.53
2023-04-09T11:47:56.592Z,97.10
2023-04-09T11:50:02.165Z,90.52
2023-04-09T11:52:08.013Z,91.28
2023-04-09T11:54:15.567Z,91.35
2023-04-09T11:56:20.709Z,80.52
2023-04-09T11:58:26.933Z,87.72
2023-04-09T12:00:32.570Z,82.33
2023-04-09T12:02:42.053Z,81.31
2023-04-09T12:04:53.371Z,78.12
2023-04-09T12:07:00.705Z,80.35
2023-04-09T12:09:06.161Z,79.86
2023-04-09T12:11:13.018Z,74.95
2023-04-09T12:13:18.061Z,72.39
2023-04-09T12:15:25.615Z,75.27
2023-04-09T12:17:30.759Z,83.17
2023-04-09T12:19:39.946Z,77.52
2023-04-09T12:21:53.106Z,79.89
2023-04-09T12:23:57.949Z,81.58
2023-04-09T12:26:03.633Z,78.05
2023-04-09T12:28:10.488Z,80.83
2023-04-09T12:30:15.784Z,68.81
2023-04-09T12:32:20.813Z,81.68
2023-04-09T12:34:27.752Z,69.56
2023-04-09T12:36:35.378Z,70.31
2023-04-09T12:38:40.540Z,69.22
2023-04-09T12:40:45.591Z,68.59
2023-04-09T12:42:50.986Z,73.12
2023-04-09T12:44:56.112Z,72.79
2023-04-09T12:47:01.592Z,71.69
2023-04-09T12:49:06.616Z,70.59
2023-04-09T12:51:12.068Z,69.18
2023-04-09T12:53:19.700Z,71.50
2023-04-09T12:55:25.465Z,70.68
2023-04-09T12:57:31.074Z,68.61
2023-04-09T12:59:36.137Z,70.53
2023-04-09T13:01:43.301Z,77.43
2023-04-09T13:03:48.826Z,78.00
2023-04-09T13:05:54.340Z,76.74
2023-04-09T13:07:59.324Z,81.26
2023-04-09T13:10:07.618Z,72.55
2023-04-09T13:12:12.805Z,69.72
2023-04-09T13:14:17.858Z,66.18
2023-04-09T13:16:22.905Z,72.71
2023-04-09T13:18:27.931Z,66.28
2023-04-09T13:20:33.396Z,66.71
2023-04-09T13:22:39.273Z,61.02
2023-04-09T13:24:44.437Z,62.49
2023-04-09T13:26:52.851Z,65.68
2023-04-09T13:28:58.782Z,67.21
2023-04-09T13:31:04.187Z,70.09
2023-04-09T13:33:09.967Z,73.72
2023-04-09T13:35:15.277Z,66.62
2023-04-09T13:37:20.561Z,64.69
2023-04-09T13:39:25.574Z,60.29
2023-04-09T13:41:31.829Z,63.60
2023-04-09T13:43:39.648Z,62.96
2023-04-09T13:45:44.944Z,68.39
2023-04-09T13:47:50.448Z,70.96
2023-04-09T13:49:55.953Z,67.63
2023-04-09T13:52:01.303Z,68.27
2023-04-09T13:54:08.202Z,68.88
2023-04-09T13:56:13.367Z,68.26
2023-04-09T13:58:18.976Z,69.21
2023-04-09T14:00:27.765Z,69.14
2023-04-09T14:02:33.162Z,65.05
2023-04-09T14:04:38.505Z,68.57
2023-04-09T14:06:44.598Z,61.62
2023-04-09T14:08:49.813Z,58.22
2023-04-09T14:10:54.878Z,58.00
2023-04-09T14:13:00.165Z,60.38
2023-04-09T14:15:05.248Z,57.47
2023-04-09T14:17:13.401Z,53.82
2023-04-09T14:19:18.632Z,53.92
2023-04-09T14:21:24.049Z,55.18
2023-04-09T14:23:29.565Z,50.77
2023-04-09T14:25:34.608Z,51.76
2023-04-09T14:27:40.153Z,46.01
2023-04-09T14:29:45.227Z,48.00
2023-04-09T14:31:53.463Z,47.10
2023-04-09T14:34:01.906Z,48.68
2023-04-09T14:36:07.828Z,45.12
2023-04-09T14:38:13.133Z,48.04
2023-04-09T14:40:18.215Z,51.10
2023-04-09T14:42:23.463Z,50.79
2023-04-09T14:44:28.547Z,49.02
2023-04-09T14:46:33.844Z,50.23
2023-04-09T14:48:39.529Z,52.14
2023-04-09T14:50:47.196Z,56.49
2023-04-09T14:52:52.989Z,58.70
2023-04-09T14:54:58.001Z,58.61
2023-04-09T14:57:03.891Z,60.13
2023-04-09T14:59:09.799Z,61.11
2023-04-09T15:01:14.839Z,60.55
2023-04-09T15:03:20.268Z,59.83
2023-04-09T15:05:25.930Z,59.12
2023-04-09T15:07:34.020Z,62.43
2023-04-09T15:09:39.069Z,62.79
2023-04-09T15:11:44.290Z,64.41
2023-04-09T15:13:49.431Z,62.60
2023-04-09T15:15:54.678Z,59.72
2023-04-09T15:18:06.045Z,56.23
2023-04-09T15:20:13.999Z,58.66
2023-04-09T15:22:19.164Z,55.08
2023-04-09T15:24:26.833Z,52.67
2023-04-09T15:26:33.310Z,50.50
2023-04-09T15:28:38.720Z,51.49
2023-04-09T15:30:43.819Z,57.44
2023-04-09T15:32:49.207Z,54.16
2023-04-09T15:34:54.432Z,58.24
2023-04-09T15:36:59.526Z,58.37
2023-04-09T15:39:06.731Z,56.61
2023-04-09T15:41:16.941Z,56.49
2023-04-09T15:43:23.393Z,55.78
2023-04-09T15:45:29.782Z,52.68
2023-04-09T15:47:35.384Z,53.76
2023-04-09T15:49:41.012Z,57.15
2023-04-09T15:51:46.045Z,59.01
2023-04-09T15:53:51.161Z,60.03
2023-04-09T15:55:56.194Z,61.99
2023-04-09T15:58:04.064Z,62.07
2023-04-09T16:00:12.333Z,63.84
2023-04-09T16:02:17.626Z,62.25
2023-04-09T16:04:22.695Z,60.09
2023-04-09T16:06:28.115Z,58.83
2023-04-09T16:08:33.131Z,59.85
2023-04-09T16:10:38.474Z,57.29
2023-04-09T16:12:43.497Z,59.54
2023-04-09T16:14:51.635Z,59.60
2023-04-09T16:16:56.702Z,61.63
2023-04-09T16:19:01.815Z,61.31
2023-04-09T16:21:08.269Z,59.27
2023-04-09T16:23:13.287Z,59.41
2023-04-09T16:25:18.326Z,60.98
2023-04-09T16:27:23.470Z,61.30
2023-04-09T16:29:28.533Z,59.62
2023-04-09T16:31:36.480Z,60.45
2023-04-09T16:33:41.640Z,60.99
2023-04-09T16:35:47.148Z,54.53
2023-04-09T16:37:52.537Z,57.59
2023-04-09T16:39:58.220Z,57.06
2023-04-09T16:42:03.344Z,58.36
2023-04-09T16:44:08.986Z,57.09
2023-04-09T16:46:14.161Z,50.98
2023-04-09T16:48:21.791Z,51.92
2023-04-09T16:50:27.981Z,50.56
2023-04-09T16:52:35.460Z,50.00
2023-04-09T16:54:40.547Z,50.20
2023-04-09T16:56:45.675Z,50.78
2023-04-09T16:58:50.782Z,51.98
2023-04-09T17:00:55.979Z,51.96
2023-04-09T17:03:02.307Z,51.66
2023-04-09T17:05:11.699Z,52.59
2023-04-09T17:07:17.901Z,53.18
2023-04-09T17:09:22.893Z,54.36
2023-04-09T17:11:27.930Z,55.21
2023-04-09T17:13:36.066Z,55.12
2023-04-09T17:15:41.634Z,53.19
2023-04-09T17:17:51.512Z,55.66
2023-04-09T17:19:58.521Z,58.03
2023-04-09T17:22:06.468Z,59.07
2023-04-09T17:24:11.539Z,59.86
2023-04-09T17:26:17.026Z,59.17
2023-04-09T17:28:22.833Z,61.19
2023-04-09T17:30:27.837Z,60.09
2023-04-09T17:32:32.917Z,60.75
2023-04-09T17:34:37.991Z,63.02
2023-04-09T17:36:43.202Z,66.58
2023-04-09T17:38:53.991Z,67.38
2023-04-09T17:40:59.162Z,68.65
2023-04-09T17:43:04.285Z,71.23
2023-04-09T17:45:11.946Z,73.85
2023-04-09T17:47:17.222Z,75.65
2023-04-09T17:49:22.525Z,75.50
2023-04-09T17:51:27.867Z,78.00
2023-04-09T17:53:33.201Z,82.58
2023-04-09T17:55:40.770Z,83.35
2023-04-09T17:57:46.137Z,86.03
2023-04-09T17:59:52.291Z,90.28
2023-04-09T18:01:57.906Z,96.50
2023-04-09T18:04:03.975Z,99.70
2023-04-09T18:06:10.155Z,100.00
2023-04-09T18:08:15.885Z,100.00
2023-04-09T18:10:21.424Z,100.00
2023-04-09T18:12:29.223Z,100.00
2023-04-09T18:14:34.752Z,100.00
2023-04-09T18:16:42.161Z,100.00
2023-04-09T18:18:47.477Z,100.00
2023-04-09T18:20:53.738Z,100.00
2023-04-09T18:22:58.742Z,100.00
2023-04-09T18:25:04.333Z,100.00
2023-04-09T18:27:09.584Z,100.00
2023-04-09T18:29:17.449Z,100.00
2023-04-09T18:31:22.605Z,100.00
2023-04-09T18:33:27.906Z,100.00
2023-04-09T18:35:32.939Z,100.00
2023-04-09T18:37:38.438Z,100.00
2023-04-09T18:39:43.734Z,100.00
2023-04-09T18:41:49.030Z,100.00
2023-04-09T18:43:54.077Z,100.00
2023-04-09T18:46:01.864Z,100.00
2023-04-09T18:48:08.357Z,100.00
2023-04-09T18:50:15.936Z,100.00
2023-04-09T18:52:20.927Z,100.00
2023-04-09T18:54:26.310Z,100.00
2023-04-09T18:56:31.639Z,100.00
2023-04-09T18:58:36.848Z,100.00
2023-04-09T19:00:42.346Z,100.00
2023-04-09T19:02:50.078Z,100.00
2023-04-09T19:04:56.483Z,100.00
2023-04-09T19:07:01.498Z,100.00
2023-04-09T19:09:06.806Z,100.00
2023-04-09T19:11:12.759Z,100.00
2023-04-09T19:13:18.409Z,100.00
2023-04-09T19:15:24.230Z,100.00
2023-04-09T19:17:29.553Z,100.00
2023-04-09T19:19:37.588Z,100.00
2023-04-09T19:21:42.650Z,100.00
2023-04-09T19:23:48.260Z,100.00
2023-04-09T19:25:55.382Z,100.00
2023-04-09T19:28:00.547Z,100.00
2023-04-09T19:30:05.936Z,100.00
2023-04-09T19:32:13.384Z,100.00
2023-04-09T19:34:18.480Z,100.00
2023-04-09T19:36:26.952Z,100.00
2023-04-09T19:38:32.092Z,100.00
2023-04-09T19:40:37.348Z,100.00
2023-04-09T19:42:42.374Z,100.00
2023-04-09T19:44:47.580Z,100.00
2023-04-09T19:46:52.636Z,100.00
2023-04-09T19:48:57.792Z,100.00
2023-04-09T19:51:03.286Z,100.00
2023-04-09T19:53:10.957Z,100.00
2023-04-09T19:55:16.031Z,100.00
2023-04-09T19:57:21.010Z,100.00
2023-04-09T19:59:26.315Z,100.00
2023-04-09T20:01:31.555Z,100.00
2023-04-09T20:03:36.716Z,100.00
2023-04-09T20:05:41.808Z,100.00
2023-04-09T20:07:47.114Z,100.00
2023-04-09T20:09:54.803Z,100.00
2023-04-09T20:12:04.496Z,100.00
2023-04-09T20:14:11.320Z,100.00
2023-04-09T20:16:16.729Z,100.00
2023-04-09T20:18:21.782Z,100.00
2023-04-09T20:20:27.369Z,100.00
2023-04-09T20:22:32.382Z,100.00
2023-04-09T20:24:38.487Z,100.00
2023-04-09T20:26:46.505Z,100.00
2023-04-09T20:28:51.790Z,100.00
2023-04-09T20:30:57.003Z,100.00
2023-04-09T20:33:02.201Z,100.00
2023-04-09T20:35:09.498Z,100.00
2023-04-09T20:37:14.880Z,100.00
2023-04-09T20:39:19.955Z,100.00
2023-04-09T20:41:24.971Z,100.00
2023-04-09T20:43:32.752Z,100.00
2023-04-09T20:45:37.850Z,100.00
2023-04-09T20:47:43.225Z,100.00
2023-04-09T20:49:49.154Z,100.00
2023-04-09T20:51:54.195Z,100.00
2023-04-09T20:54:01.630Z,100.00
2023-04-09T20:56:07.442Z,100.00
2023-04-09T20:58:12.709Z,100.00
2023-04-09T21:00:20.744Z,100.00
2023-04-09T21:02:26.007Z,100.00
2023-04-09T21:04:31.329Z,100.00
2023-04-09T21:06:37.261Z,100.00
2023-04-09T21:08:43.737Z,100.00
2023-04-09T21:10:48.745Z,100.00
2023-04-09T21:12:53.876Z,100.00
2023-04-09T21:14:58.925Z,100.00
2023-04-09T21:17:06.976Z,100.00
2023-04-09T21:19:12.070Z,100.00
2023-04-09T21:21:17.194Z,100.00
2023-04-09T21:23:22.200Z,100.00
2023-04-09T21:25:30.379Z,100.00
2023-04-09T21:27:35.659Z,100.00
2023-04-09T21:29:40.821Z,100.00
2023-04-09T21:31:45.842Z,100.00
2023-04-09T21:33:53.426Z,100.00
2023-04-09T21:35:58.549Z,100.00
2023-04-09T21:38:03.719Z,100.00
2023-04-09T21:40:12.980Z,100.00
2023-04-09T21:42:18.000Z,100.00
2023-04-09T21:44:23.092Z,100.00
2023-04-09T21:46:28.288Z,100.00
2023-04-09T21:48:33.921Z,100.00
2023-04-09T21:50:41.861Z,100.00
2023-04-09T21:52:48.567Z,100.00
2023-04-09T21:54:53.583Z,100.00
2023-04-09T21:56:58.605Z,100.00
2023-04-09T21:59:03.787Z,100.00
2023-04-09T22:01:22.426Z,100.00
2023-04-09T22:03:35.059Z,100.00
2023-04-09T22:05:42.778Z,100.00
2023-04-09T22:07:47.799Z,100.00
2023-04-09T22:09:53.047Z,100.00
2023-04-09T22:11:58.635Z,100.00
2023-04-09T22:14:03.672Z,100.00
2023-04-09T22:16:10.344Z,100.00
2023-04-09T22:18:15.838Z,100.00
2023-04-09T22:20:20.902Z,100.00
2023-04-09T22:22:28.533Z,100.00
2023-04-09T22:24:34.174Z,100.00
2023-04-09T22:26:41.025Z,100.00
2023-04-09T22:28:46.244Z,100.00
2023-04-09T22:30:51.629Z,100.00
2023-04-09T22:32:56.669Z,100.00
2023-04-09T22:35:01.738Z,100.00
2023-04-09T22:37:06.793Z,100.00
2023-04-09T22:39:14.667Z,100.00
2023-04-09T22:41:20.168Z,100.00
2023-04-09T22:43:25.552Z,100.00
2023-04-09T22:45:32.342Z,100.00
2023-04-09T22:47:37.398Z,100.00
2023-04-09T22:49:42.889Z,100.00
2023-04-09T22:51:48.590Z,100.00
2023-04-09T22:53:53.579Z,100.00
2023-04-09T22:56:02.208Z,100.00
2023-04-09T22:58:07.501Z,100.00
2023-04-09T23:00:13.657Z,100.00
2023-04-09T23:02:18.767Z,100.00
2023-04-09T23:04:25.463Z,100.00
2023-04-09T23:06:31.061Z,100.00
2023-04-09T23:10:41.408Z,100.00
2023-04-09T23:12:49.457Z,100.00
2023-04-09T23:14:54.496Z,100.00
2023-04-09T23:16:59.546Z,100.00
2023-04-09T23:19:04.792Z,100.00
2023-04-09T23:21:11.022Z,100.00
2023-04-09T23:23:16.190Z,100.00
2023-04-09T23:25:21.988Z,100.00
2023-04-09T23:27:28.939Z,100.00
2023-04-09T23:29:36.953Z,100.00
2023-04-09T23:31:41.995Z,100.00
2023-04-09T23:33:47.247Z,100.00
2023-04-09T23:35:52.333Z,100.00
2023-04-09T23:37:58.646Z,100.00
2023-04-09T23:40:03.994Z,100.00
2023-04-09T23:42:09.016Z,100.00
2023-04-09T23:44:14.021Z,100.00
2023-04-09T23:46:21.918Z,100.00
2023-04-09T23:48:26.964Z,100.00
2023-04-09T23:50:31.965Z,100.00
2023-04-09T23:52:40.369Z,100.00
2023-04-09T23:54:51.966Z,100.00
2023-04-09T23:56:58.223Z,100.00
2023-04-09T23:59:03.230Z,100.00
